createdAt,value
2018-06-19T00:00:54.183Z,2.13
2018-06-19T00:03:22.551Z,2.03
2018-06-19T00:05:51.263Z,2.03
2018-06-19T00:08:20.854Z,2.40
2018-06-19T00:10:49.211Z,2.47
2018-06-19T00:13:17.665Z,2.47
2018-06-19T00:15:46.855Z,2.40
2018-06-19T00:18:23.347Z,2.30
2018-06-19T00:20:52.774Z,2.70
2018-06-19T00:23:21.163Z,2.03
2018-06-19T00:25:49.246Z,1.93
2018-06-19T00:28:17.851Z,2.60
2018-06-19T00:30:46.556Z,2.40
2018-06-19T00:33:15.235Z,2.40
2018-06-19T00:35:43.696Z,2.40
2018-06-19T00:38:12.168Z,1.93
2018-06-19T00:40:40.787Z,2.77
2018-06-19T00:43:09.240Z,2.10
2018-06-19T00:45:38.103Z,1.93
2018-06-19T00:48:07.012Z,2.20
2018-06-19T00:50:35.603Z,2.83
2018-06-19T00:53:04.496Z,1.77
2018-06-19T00:55:32.872Z,2.23
2018-06-19T00:58:01.732Z,2.17
2018-06-19T01:00:30.195Z,2.20
2018-06-19T01:02:58.568Z,2.27
2018-06-19T01:05:27.175Z,2.07
2018-06-19T01:07:55.532Z,2.07
2018-06-19T01:10:23.923Z,2.00
2018-06-19T01:12:52.607Z,2.63
2018-06-19T01:15:20.971Z,2.40
2018-06-19T01:17:49.546Z,2.63
2018-06-19T01:20:17.939Z,2.10
2018-06-19T01:22:46.305Z,2.63
2018-06-19T01:25:15.000Z,1.70
2018-06-19T01:27:43.639Z,2.83
2018-06-19T01:30:12.327Z,2.37
2018-06-19T01:32:40.711Z,2.10
2018-06-19T01:35:09.068Z,2.27
2018-06-19T01:37:37.423Z,2.83
2018-06-19T01:40:05.824Z,2.50
2018-06-19T01:42:34.414Z,2.13
2018-06-19T01:45:02.791Z,2.90
2018-06-19T01:47:31.416Z,1.93
2018-06-19T01:49:59.778Z,2.50
2018-06-19T01:52:28.159Z,2.17
2018-06-19T01:54:56.523Z,2.27
2018-06-19T01:57:25.161Z,2.23
2018-06-19T01:59:53.780Z,2.20
2018-06-19T02:02:22.147Z,1.93
2018-06-19T02:04:50.491Z,2.10
2018-06-19T02:07:19.147Z,2.33
2018-06-19T02:09:47.495Z,2.50
2018-06-19T02:12:16.167Z,1.80
2018-06-19T02:14:46.594Z,2.60
2018-06-19T02:17:16.721Z,3.03
2018-06-19T02:19:46.558Z,2.50
2018-06-19T02:22:15.439Z,2.50
2018-06-19T02:24:43.794Z,1.77
2018-06-19T02:27:12.167Z,1.93
2018-06-19T02:29:40.872Z,2.73
2018-06-19T02:32:09.720Z,3.00
2018-06-19T02:34:38.099Z,2.87
2018-06-19T02:37:06.467Z,2.47
2018-06-19T02:39:34.839Z,2.07
2018-06-19T02:42:03.236Z,2.50
2018-06-19T02:44:31.908Z,2.13
2018-06-19T02:47:00.264Z,1.80
2018-06-19T02:49:28.719Z,2.83
2018-06-19T02:51:57.329Z,2.37
2018-06-19T02:54:26.163Z,2.23
2018-06-19T02:56:54.552Z,2.47
2018-06-19T02:59:23.465Z,2.10
2018-06-19T03:01:51.832Z,2.77
2018-06-19T03:04:20.481Z,1.93
2018-06-19T03:06:49.156Z,3.10
2018-06-19T03:09:17.519Z,2.10
2018-06-19T03:11:45.905Z,2.40
2018-06-19T03:14:14.549Z,2.70
2018-06-19T03:16:42.904Z,2.77
2018-06-19T03:19:11.271Z,2.80
2018-06-19T03:21:39.924Z,2.10
2018-06-19T03:24:08.607Z,3.47
2018-06-19T03:26:36.983Z,2.33
2018-06-19T03:29:05.331Z,2.13
2018-06-19T03:31:33.685Z,2.60
2018-06-19T03:34:02.340Z,2.20
2018-06-19T03:36:31.286Z,3.10
2018-06-19T03:39:00.010Z,2.80
2018-06-19T03:41:28.409Z,3.20
2018-06-19T03:43:56.815Z,2.77
2018-06-19T03:46:25.179Z,2.30
2018-06-19T03:48:53.659Z,2.57
2018-06-19T03:51:22.313Z,2.10
2018-06-19T03:53:51.067Z,2.83
2018-06-19T03:56:19.687Z,2.40
2018-06-19T03:58:48.363Z,2.47
2018-06-19T04:01:16.967Z,1.97
2018-06-19T04:03:45.664Z,2.83
2018-06-19T04:06:14.123Z,2.60
2018-06-19T04:08:42.483Z,2.53
2018-06-19T04:11:11.188Z,1.93
2018-06-19T04:13:39.544Z,3.20
2018-06-19T04:16:07.907Z,2.13
2018-06-19T04:18:36.333Z,2.43
2018-06-19T04:21:04.935Z,2.47
2018-06-19T04:23:33.500Z,2.33
2018-06-19T04:26:02.179Z,2.80
2018-06-19T04:28:30.568Z,2.63
2018-06-19T04:30:59.392Z,2.23
2018-06-19T04:33:28.296Z,2.47
2018-06-19T04:35:56.960Z,3.07
2018-06-19T04:38:25.911Z,2.20
2018-06-19T04:40:56.200Z,2.77
2018-06-19T04:43:26.771Z,2.60
2018-06-19T04:45:55.371Z,2.23
2018-06-19T04:48:23.734Z,3.10
2018-06-19T04:50:51.809Z,2.00
2018-06-19T04:53:20.429Z,2.63
2018-06-19T04:55:49.119Z,2.47
2018-06-19T04:58:17.799Z,2.60
2018-06-19T05:00:46.795Z,2.60
2018-06-19T05:03:15.484Z,2.27
2018-06-19T05:05:43.839Z,2.67
2018-06-19T05:08:12.210Z,3.20
2018-06-19T05:10:40.592Z,2.80
2018-06-19T05:13:09.247Z,3.80
2018-06-19T05:15:37.623Z,2.50
2018-06-19T05:18:06.150Z,2.87
2018-06-19T05:20:34.496Z,2.70
2018-06-19T05:23:02.863Z,2.63
2018-06-19T05:25:31.551Z,2.50
2018-06-19T05:27:59.907Z,3.20
2018-06-19T05:30:28.337Z,2.50
2018-06-19T05:32:56.659Z,2.90
2018-06-19T05:35:25.319Z,2.27
2018-06-19T05:37:53.712Z,2.67
2018-06-19T05:40:22.379Z,2.40
2018-06-19T05:42:50.733Z,2.63
2018-06-19T05:45:19.283Z,3.10
2018-06-19T05:47:47.955Z,2.97
2018-06-19T05:50:17.047Z,2.50
2018-06-19T05:52:45.735Z,2.80
2018-06-19T05:55:14.203Z,2.93
2018-06-19T05:57:42.872Z,2.80
2018-06-19T06:00:11.345Z,2.30
2018-06-19T06:02:39.935Z,2.20
2018-06-19T06:05:08.928Z,2.97
2018-06-19T06:07:37.303Z,2.60
2018-06-19T06:10:05.707Z,2.47
2018-06-19T06:12:34.075Z,2.27
2018-06-19T06:15:03.019Z,2.50
2018-06-19T06:17:31.392Z,2.13
2018-06-19T06:19:59.747Z,2.90
2018-06-19T06:22:28.124Z,2.30
2018-06-19T06:24:57.287Z,3.00
2018-06-19T06:27:25.867Z,2.47
2018-06-19T06:29:54.235Z,2.70
2018-06-19T06:32:22.831Z,2.50
2018-06-19T06:34:51.176Z,2.40
2018-06-19T06:37:19.250Z,2.23
2018-06-19T06:39:47.611Z,2.10
2018-06-19T06:42:16.254Z,2.33
2018-06-19T06:44:44.947Z,2.30
2018-06-19T06:47:13.567Z,2.10
2018-06-19T06:49:41.919Z,1.97
2018-06-19T06:52:10.599Z,2.30
2018-06-19T06:54:39.267Z,3.10
2018-06-19T06:57:07.711Z,2.30
2018-06-19T06:59:36.083Z,2.23
2018-06-19T07:02:04.754Z,2.30
2018-06-19T07:04:33.403Z,2.40
2018-06-19T07:07:02.103Z,2.17
2018-06-19T07:09:30.492Z,2.30
2018-06-19T07:11:59.075Z,2.60
2018-06-19T07:14:27.443Z,1.70
2018-06-19T07:16:56.097Z,1.90
2018-06-19T07:19:24.820Z,1.90
2018-06-19T07:21:53.529Z,2.30
2018-06-19T07:24:21.881Z,2.30
2018-06-19T07:26:50.236Z,2.00
2018-06-19T07:29:18.696Z,1.43
2018-06-19T07:31:47.391Z,1.70
2018-06-19T07:34:15.975Z,2.00
2018-06-19T07:36:44.406Z,2.20
2018-06-19T07:39:12.940Z,2.23
2018-06-19T07:41:41.291Z,1.60
2018-06-19T07:44:09.713Z,1.67
2018-06-19T07:46:38.326Z,1.40
2018-06-19T07:49:06.387Z,2.00
2018-06-19T07:51:35.111Z,1.87
2018-06-19T07:54:03.819Z,1.40
2018-06-19T07:56:32.190Z,2.10
2018-06-19T07:59:00.612Z,1.80
2018-06-19T08:01:29.291Z,1.50
2018-06-19T08:03:57.667Z,1.80
2018-06-19T08:06:26.043Z,1.70
2018-06-19T08:08:55.020Z,1.37
2018-06-19T08:11:23.744Z,2.13
2018-06-19T08:13:52.379Z,1.93
2018-06-19T08:16:21.172Z,1.93
2018-06-19T08:18:49.622Z,1.37
2018-06-19T08:21:17.966Z,1.30
2018-06-19T08:23:46.320Z,1.37
2018-06-19T08:26:14.672Z,1.53
2018-06-19T08:28:43.048Z,1.50
2018-06-19T08:31:11.952Z,1.40
2018-06-19T08:33:40.319Z,1.50
2018-06-19T08:36:08.691Z,1.50
2018-06-19T08:38:37.323Z,1.30
2018-06-19T08:41:06.080Z,1.30
2018-06-19T08:43:34.763Z,1.30
2018-06-19T08:46:03.461Z,1.57
2018-06-19T08:48:31.827Z,1.40
2018-06-19T08:51:00.231Z,1.30
2018-06-19T08:53:28.956Z,1.37
2018-06-19T08:55:57.343Z,1.80
2018-06-19T08:58:25.725Z,1.90
2018-06-19T09:00:54.360Z,1.40
2018-06-19T09:03:22.699Z,1.47
2018-06-19T09:05:51.088Z,1.73
2018-06-19T09:08:19.667Z,1.37
2018-06-19T09:10:48.019Z,1.27
2018-06-19T09:13:16.782Z,0.80
2018-06-19T09:15:45.148Z,1.60
2018-06-19T09:18:13.536Z,0.90
2018-06-19T09:20:41.920Z,0.90
2018-06-19T09:23:10.561Z,1.30
2018-06-19T09:25:39.051Z,1.13
2018-06-19T09:28:07.447Z,1.30
2018-06-19T09:30:36.055Z,1.10
2018-06-19T09:33:04.424Z,1.13
2018-06-19T09:35:32.812Z,1.20
2018-06-19T09:38:01.448Z,1.33
2018-06-19T09:40:30.132Z,0.90
2018-06-19T09:42:58.779Z,1.00
2018-06-19T09:45:27.403Z,1.17
2018-06-19T09:47:56.295Z,1.20
2018-06-19T09:50:25.480Z,1.03
2018-06-19T09:52:53.903Z,1.27
2018-06-19T09:55:22.251Z,1.13
2018-06-19T09:57:50.935Z,0.97
2018-06-19T10:00:24.640Z,1.70
2018-06-19T10:02:53.103Z,1.10
2018-06-19T10:05:21.463Z,0.93
2018-06-19T10:07:50.127Z,1.07
2018-06-19T10:10:18.499Z,1.23
2018-06-19T10:12:47.152Z,1.20
2018-06-19T10:15:15.511Z,1.83
2018-06-19T10:17:44.243Z,1.63
2018-06-19T10:20:13.200Z,1.40
2018-06-19T10:22:41.887Z,1.17
2018-06-19T10:25:10.561Z,1.13
2018-06-19T10:27:39.355Z,0.80
2018-06-19T10:30:08.551Z,1.10
2018-06-19T10:32:36.976Z,0.97
2018-06-19T10:35:05.373Z,1.27
2018-06-19T10:37:34.089Z,1.00
2018-06-19T10:40:03.106Z,1.00
2018-06-19T10:42:31.483Z,1.20
2018-06-19T10:45:00.351Z,1.50
2018-06-19T10:47:29.093Z,0.90
2018-06-19T10:49:57.788Z,1.30
2018-06-19T10:52:26.438Z,0.90
2018-06-19T10:54:55.057Z,1.27
2018-06-19T10:57:24.235Z,1.03
2018-06-19T10:59:52.871Z,1.47
2018-06-19T11:02:21.236Z,1.00
2018-06-19T11:04:50.151Z,1.23
2018-06-19T11:07:23.000Z,1.10
2018-06-19T11:09:51.615Z,0.97
2018-06-19T11:12:20.299Z,1.00
2018-06-19T11:14:49.243Z,1.10
2018-06-19T11:17:17.591Z,1.10
2018-06-19T11:19:46.367Z,1.10
2018-06-19T11:22:14.743Z,0.87
2018-06-19T11:24:43.102Z,1.07
2018-06-19T11:27:11.687Z,0.90
2018-06-19T11:29:40.581Z,1.37
2018-06-19T11:32:08.935Z,1.00
2018-06-19T11:34:37.559Z,1.00
2018-06-19T11:37:06.359Z,0.97
2018-06-19T11:39:34.744Z,1.10
2018-06-19T11:42:03.112Z,1.00
2018-06-19T11:44:31.481Z,0.90
2018-06-19T11:46:59.968Z,0.90
2018-06-19T11:49:28.325Z,0.80
2018-06-19T11:51:56.703Z,0.90
2018-06-19T11:54:25.588Z,1.13
2018-06-19T11:56:54.325Z,1.10
2018-06-19T11:59:22.667Z,1.03
2018-06-19T12:01:51.089Z,0.93
2018-06-19T12:04:19.724Z,1.00
2018-06-19T12:06:48.158Z,0.80
2018-06-19T12:09:16.511Z,1.10
2018-06-19T12:11:44.872Z,1.20
2018-06-19T12:14:13.267Z,1.00
2018-06-19T12:16:41.640Z,1.07
2018-06-19T12:19:10.326Z,0.80
2018-06-19T12:21:38.725Z,0.93
2018-06-19T12:24:07.368Z,1.20
2018-06-19T12:26:36.186Z,1.13
2018-06-19T12:29:04.583Z,1.10
2018-06-19T12:31:32.939Z,0.90
2018-06-19T12:34:01.320Z,1.00
2018-06-19T12:36:29.721Z,1.27
2018-06-19T12:38:58.403Z,0.80
2018-06-19T12:41:47.708Z,1.00
2018-06-19T12:44:16.232Z,0.80
2018-06-19T12:46:44.873Z,1.20
2018-06-19T12:49:13.567Z,0.87
2018-06-19T12:51:54.764Z,0.90
2018-06-19T12:55:10.059Z,1.67
2018-06-19T12:57:38.819Z,1.33
2018-06-19T13:00:07.180Z,1.20
2018-06-19T13:02:35.872Z,1.00
2018-06-19T13:05:15.600Z,1.57
2018-06-19T13:07:44.199Z,1.07
2018-06-19T13:10:13.722Z,1.03
2018-06-19T13:13:24.167Z,0.80
2018-06-19T13:15:53.496Z,1.10
2018-06-19T13:18:34.617Z,0.70
2018-06-19T13:21:03.059Z,0.80
2018-06-19T13:23:32.139Z,1.07
2018-06-19T13:26:01.038Z,1.00
2018-06-19T13:28:41.085Z,1.00
2018-06-19T13:31:20.767Z,0.93
2018-06-19T13:33:49.150Z,0.80
2018-06-19T13:36:17.575Z,0.80
2018-06-19T13:38:46.506Z,1.00
2018-06-19T13:41:27.339Z,1.00
2018-06-19T13:44:11.926Z,0.90
2018-06-19T13:46:40.463Z,0.83
2018-06-19T13:49:09.131Z,0.80
2018-06-19T13:51:37.768Z,1.20
2018-06-19T13:54:06.438Z,0.90
2018-06-19T13:57:45.183Z,1.00
2018-06-19T14:00:20.650Z,1.13
2018-06-19T14:02:49.108Z,0.97
2018-06-19T14:05:18.795Z,0.87
2018-06-19T14:08:11.381Z,0.80
2018-06-19T14:10:51.391Z,1.00
2018-06-19T14:13:19.783Z,1.37
2018-06-19T14:15:49.588Z,0.90
2018-06-19T14:18:19.118Z,0.80
2018-06-19T14:20:47.547Z,1.17
2018-06-19T14:23:15.976Z,1.20
2018-06-19T14:25:44.615Z,1.17
2018-06-19T14:28:13.324Z,1.50
2018-06-19T14:30:42.059Z,1.27
2018-06-19T14:33:10.470Z,1.23
2018-06-19T14:35:39.088Z,0.97
2018-06-19T14:38:07.467Z,1.00
2018-06-19T14:40:35.890Z,1.30
2018-06-19T14:43:04.293Z,1.00
2018-06-19T14:45:32.650Z,0.90
2018-06-19T14:48:01.304Z,1.30
2018-06-19T14:50:29.671Z,1.40
2018-06-19T14:52:58.648Z,2.13
2018-06-19T14:55:27.047Z,1.97
2018-06-19T14:57:55.683Z,1.07
2018-06-19T15:00:24.323Z,1.03
2018-06-19T15:02:52.691Z,0.90
2018-06-19T15:05:21.392Z,1.10
2018-06-19T15:07:51.735Z,0.93
2018-06-19T15:10:20.190Z,1.30
2018-06-19T15:12:48.503Z,1.00
2018-06-19T15:15:17.539Z,1.63
2018-06-19T15:17:45.893Z,1.10
2018-06-19T15:20:14.971Z,1.20
2018-06-19T15:22:43.443Z,0.93
2018-06-19T15:25:12.041Z,1.10
2018-06-19T15:27:41.971Z,1.07
2018-06-19T15:30:10.773Z,1.57
2018-06-19T15:32:39.123Z,1.07
2018-06-19T15:35:08.040Z,1.07
2018-06-19T15:37:36.483Z,1.23
2018-06-19T15:40:05.123Z,1.10
2018-06-19T15:42:33.835Z,1.00
2018-06-19T15:45:02.230Z,1.00
2018-06-19T15:47:30.611Z,1.10
2018-06-19T15:50:01.908Z,1.20
2018-06-19T15:52:30.327Z,1.40
2018-06-19T15:54:59.767Z,1.03
2018-06-19T15:57:28.219Z,1.30
2018-06-19T15:59:57.795Z,1.27
2018-06-19T16:02:26.527Z,1.20
2018-06-19T16:04:55.823Z,1.33
2018-06-19T16:07:24.710Z,1.07
2018-06-19T16:09:53.299Z,1.17
2018-06-19T16:12:21.662Z,0.90
2018-06-19T16:14:50.043Z,1.00
2018-06-19T16:17:18.668Z,0.93
2018-06-19T16:19:47.032Z,0.90
2018-06-19T16:22:15.762Z,0.80
2018-06-19T16:24:44.436Z,1.13
2018-06-19T16:27:12.850Z,1.10
2018-06-19T16:29:41.235Z,1.97
2018-06-19T16:32:09.911Z,1.37
2018-06-19T16:34:38.500Z,1.00
2018-06-19T16:37:06.893Z,1.43
2018-06-19T16:39:35.575Z,1.23
2018-06-19T16:42:04.572Z,1.57
2018-06-19T16:44:32.951Z,1.30
2018-06-19T16:47:01.295Z,1.43
2018-06-19T16:49:29.660Z,1.10
2018-06-19T16:51:58.644Z,1.50
2018-06-19T16:54:27.232Z,1.30
2018-06-19T16:56:55.909Z,1.10
2018-06-19T16:59:24.291Z,1.07
2018-06-19T17:01:54.053Z,1.20
2018-06-19T17:04:22.413Z,1.13
2018-06-19T17:06:51.271Z,0.93
2018-06-19T17:09:21.387Z,1.10
2018-06-19T17:11:50.098Z,1.13
2018-06-19T17:14:19.099Z,1.40
2018-06-19T17:16:47.983Z,1.40
2018-06-19T17:19:16.343Z,1.63
2018-06-19T17:21:45.034Z,1.40
2018-06-19T17:24:13.113Z,1.63
2018-06-19T17:26:41.481Z,1.20
2018-06-19T17:29:09.569Z,1.80
2018-06-19T17:31:38.164Z,1.47
2018-06-19T17:34:06.935Z,1.47
2018-06-19T17:36:35.570Z,1.80
2018-06-19T17:39:06.172Z,1.57
2018-06-19T17:41:34.527Z,1.63
2018-06-19T17:44:03.168Z,2.23
2018-06-19T17:46:31.819Z,2.10
2018-06-19T17:49:01.447Z,1.70
2018-06-19T17:51:30.093Z,1.30
2018-06-19T17:53:58.736Z,1.43
2018-06-19T17:56:27.103Z,1.90
2018-06-19T17:58:55.511Z,1.27
2018-06-19T18:01:24.270Z,1.50
2018-06-19T18:03:52.660Z,1.60
2018-06-19T18:06:21.951Z,1.67
2018-06-19T18:08:50.568Z,1.53
2018-06-19T18:11:18.964Z,1.63
2018-06-19T18:13:47.384Z,1.77
2018-06-19T18:16:16.093Z,1.53
2018-06-19T18:18:44.875Z,1.53
2018-06-19T18:21:13.302Z,1.57
2018-06-19T18:23:41.358Z,1.60
2018-06-19T18:26:10.025Z,1.20
2018-06-19T18:28:38.449Z,1.63
2018-06-19T18:31:07.371Z,1.80
2018-06-19T18:33:36.431Z,1.80
2018-06-19T18:36:05.064Z,1.37
2018-06-19T18:38:34.355Z,1.40
2018-06-19T18:41:02.802Z,1.60
2018-06-19T18:43:31.379Z,1.40
2018-06-19T18:46:00.462Z,1.57
2018-06-19T18:48:29.972Z,1.60
2018-06-19T18:50:58.951Z,1.23
2018-06-19T18:53:27.303Z,1.50
2018-06-19T18:55:56.719Z,1.50
2018-06-19T18:58:25.998Z,1.50
2018-06-19T19:00:54.367Z,1.27
2018-06-19T19:03:23.215Z,1.93
2018-06-19T19:05:52.163Z,1.93
2018-06-19T19:08:22.539Z,1.83
2018-06-19T19:10:52.295Z,1.83
2018-06-19T19:13:22.281Z,1.47
2018-06-19T19:15:56.432Z,1.60
2018-06-19T19:18:30.176Z,1.60
2018-06-19T19:20:59.312Z,1.87
2018-06-19T19:23:28.499Z,1.63
2018-06-19T19:25:57.256Z,1.77
2018-06-19T19:28:30.907Z,2.17
2018-06-19T19:30:59.533Z,2.23
2018-06-19T19:33:28.186Z,2.20
2018-06-19T19:35:56.560Z,2.83
2018-06-19T19:38:30.627Z,2.80
2018-06-19T19:40:59.212Z,2.30
2018-06-19T19:43:27.492Z,2.33
2018-06-19T19:45:55.908Z,2.03
2018-06-19T19:48:29.839Z,1.90
2018-06-19T19:50:58.439Z,2.23
2018-06-19T19:53:26.927Z,1.93
2018-06-19T19:56:00.792Z,2.77
2018-06-19T19:58:35.235Z,1.93
2018-06-19T20:01:03.742Z,1.93
2018-06-19T20:03:32.113Z,2.87
2018-06-19T20:06:00.846Z,2.00
2018-06-19T20:08:29.531Z,2.30
2018-06-19T20:10:57.899Z,4.10
2018-06-19T20:13:26.248Z,3.63
2018-06-19T20:15:54.955Z,2.30
2018-06-19T20:18:23.611Z,3.00
2018-06-19T20:20:51.959Z,2.40
2018-06-19T20:23:20.374Z,2.53
2018-06-19T20:25:48.731Z,2.43
2018-06-19T20:28:17.095Z,2.90
2018-06-19T20:30:45.484Z,2.50
2018-06-19T20:33:13.869Z,2.60
2018-06-19T20:35:42.279Z,2.67
2018-06-19T20:38:10.752Z,2.60
2018-06-19T20:40:39.588Z,2.70
2018-06-19T20:43:07.901Z,2.90
2018-06-19T20:45:36.622Z,2.17
2018-06-19T20:48:05.077Z,2.13
2018-06-19T20:50:33.403Z,3.17
2018-06-19T20:53:02.108Z,3.27
2018-06-19T20:55:30.748Z,2.90
2018-06-19T20:57:59.400Z,2.80
2018-06-19T21:00:28.120Z,2.53
2018-06-19T21:02:56.812Z,2.30
2018-06-19T21:05:25.223Z,1.90
2018-06-19T21:07:53.658Z,2.30
2018-06-19T21:10:22.000Z,2.43
2018-06-19T21:12:50.357Z,2.60
2018-06-19T21:15:18.971Z,2.37
2018-06-19T21:17:47.342Z,1.90
2018-06-19T21:20:15.760Z,2.77
2018-06-19T21:22:44.151Z,2.30
2018-06-19T21:25:13.105Z,2.10
2018-06-19T21:27:41.779Z,2.17
2018-06-19T21:30:10.500Z,2.17
2018-06-19T21:32:39.467Z,2.60
2018-06-19T21:35:07.844Z,2.30
2018-06-19T21:37:36.463Z,2.60
2018-06-19T21:40:05.144Z,2.70
2018-06-19T21:42:33.732Z,2.70
2018-06-19T21:45:02.124Z,2.50
2018-06-19T21:47:30.787Z,2.67
2018-06-19T21:49:59.476Z,2.20
2018-06-19T21:52:28.230Z,2.50
2018-06-19T21:54:56.824Z,2.63
2018-06-19T21:57:25.567Z,2.77
2018-06-19T21:59:53.988Z,2.53
2018-06-19T22:02:37.791Z,2.27
2018-06-19T22:05:06.503Z,2.03
2018-06-19T22:07:35.215Z,3.20
2018-06-19T22:10:04.505Z,2.63
2018-06-19T22:12:32.871Z,2.70
2018-06-19T22:15:01.561Z,2.80
2018-06-19T22:17:30.287Z,1.93
2018-06-19T22:19:59.628Z,3.27
2018-06-19T22:22:27.998Z,3.10
2018-06-19T22:24:56.639Z,2.17
2018-06-19T22:27:25.019Z,2.23
2018-06-19T22:29:53.460Z,1.80
2018-06-19T22:32:22.511Z,2.50
2018-06-19T22:34:51.136Z,2.63
2018-06-19T22:37:19.776Z,2.23
2018-06-19T22:39:48.413Z,2.20
2018-06-19T22:42:16.876Z,2.80
2018-06-19T22:44:45.675Z,2.53
2018-06-19T22:47:14.460Z,1.90
2018-06-19T22:49:42.829Z,3.07
2018-06-19T22:52:11.436Z,2.50
2018-06-19T22:54:40.119Z,2.43
2018-06-19T22:57:08.536Z,2.93
2018-06-19T22:59:36.897Z,2.70
2018-06-19T23:02:05.278Z,2.43
2018-06-19T23:04:34.650Z,3.60
2018-06-19T23:07:03.283Z,2.03
2018-06-19T23:09:31.775Z,2.33
2018-06-19T23:12:00.257Z,2.40
2018-06-19T23:14:28.660Z,3.03
2018-06-19T23:16:57.567Z,2.77
2018-06-19T23:19:25.935Z,2.37
2018-06-19T23:21:54.447Z,2.23
2018-06-19T23:24:22.840Z,2.10
2018-06-19T23:26:51.370Z,3.13
2018-06-19T23:29:20.045Z,2.70
2018-06-19T23:31:48.407Z,1.93
2018-06-19T23:34:16.787Z,1.87
2018-06-19T23:36:44.886Z,2.63
2018-06-19T23:39:13.486Z,3.17
2018-06-19T23:41:42.273Z,2.60
2018-06-19T23:44:10.655Z,2.00
2018-06-19T23:46:39.634Z,1.53
2018-06-19T23:49:08.319Z,2.50
2018-06-19T23:51:36.679Z,2.40
2018-06-19T23:54:05.531Z,2.20
2018-06-19T23:56:33.915Z,2.40
2018-06-19T23:59:02.279Z,1.87
